Boynton Beach, FL (33435)

7:55 PM EDT on July 31, 2015 (GMT -0400)
Forest Park | | Change Station
CLOSE
Current Station
Personal Weather Station
Location: Boynton Beach, FL
Elevation: 15 ft
Nearby Weather Stations

Elev 15 ft 26.52 °N, 80.07 °W | Updated 15 seconds ago

Rain
Rain
77.5 °F
Feels Like 79 °F
N
2.3
Wind Variable Wind from NW
Gusts 2.3 mph

Today
High -- | Low -- °F
--% Chance of Precip.
Yesterday
High -- | Low -- °F
Precip. -- in
6:44 AM 8:08 PM
Full, 100% visible
Pressure 30.05 in
Visibility 10.0 miles
Clouds Scattered Clouds 2100 ft
Mostly Cloudy 3700 ft
Overcast 10000 ft
Heat Index 79 °F
Dew Point 72 °F
Humidity 83%
Rainfall 0.25 in
Snow Depth Not available.
UV 0 out of 12
Pollen .50 out of 12
Air Quality Not available.
Flu Activity Not available.
METAR KPBI 312353Z 05005KT 10SM -TSRA SCT021 BKN037CB OVC100 23/22 A3005 RMK AO2 SLP175 OCNL LTGICCG NE-SE TS NE-SE MOV NE P0105 60123 T02280217 10328 20222 53009

More Conditions Fewer Conditions

Pressure 30.05 in
Visibility 10.0 miles
Clouds Scattered Clouds 2100 ft
Mostly Cloudy 3700 ft
Overcast 10000 ft
Heat Index 79 °F
Dew Point 72 °F
Humidity 83%
Rainfall 0.25 in
Snow Depth Not available.
UV 0 out of 12
Pollen .50 out of 12
Air Quality Not available.
Flu Activity Not available.
METAR KPBI 312353Z 05005KT 10SM -TSRA SCT021 BKN037CB OVC100 23/22 A3005 RMK AO2 SLP175 OCNL LTGICCG NE-SE TS NE-SE MOV NE P0105 60123 T02280217 10328 20222 53009

More Conditions Fewer Conditions

10-Day Weather Forecast

×

Almanac

Astronomy

Jul. 31, 2015 Rise Set
Actual Time
Civil Twilight
Nautical Twilight
Astronomical Twilight
Moon
Length of Visible Light
Length of Day
Tomorrow will be .
, % of the Moon is Illuminated

Today's Extremes

State Highs State Lows

Community

WunderPhotos

Upload Photos

1,842,771 photos uploaded!

WunderBlogs® & News

Nearby

Air Quality

  Air Quality AQ Index Pollutant
Not available.

Snow Depth

Station Depth Elevation

Earthquake Activity

City Distance Mag. Time & Date
Minimum magnitude displayed is 2.5.

Coastal Water Temperatures

Place Temperature

Stations

Nearby Weather Stations

Station Location Temp. Windchill Dew Point Humidity Wind Precip. Elev Updated Type